createdAt,value
2022-07-31T00:00:20.833Z,977.95
2022-07-31T00:12:21.305Z,977.98
2022-07-31T00:24:21.708Z,977.98
2022-07-31T00:36:22.200Z,977.98
2022-07-31T00:48:22.647Z,977.97
2022-07-31T01:00:23.125Z,978.00
2022-07-31T01:12:23.563Z,978.12
2022-07-31T01:24:24.003Z,978.08
2022-07-31T01:36:24.484Z,978.17
2022-07-31T01:48:24.921Z,978.09
2022-07-31T02:00:34.616Z,978.01
2022-07-31T02:12:32.250Z,977.99
2022-07-31T02:24:26.307Z,977.91
2022-07-31T02:36:26.749Z,977.87
2022-07-31T02:48:27.170Z,977.94
2022-07-31T03:00:27.756Z,978.07
2022-07-31T03:12:28.079Z,978.18
2022-07-31T03:24:28.534Z,978.13
2022-07-31T03:36:28.962Z,978.11
2022-07-31T03:48:29.467Z,978.01
2022-07-31T04:00:29.935Z,977.90
2022-07-31T04:12:30.374Z,977.96
2022-07-31T04:24:30.823Z,978.12
2022-07-31T04:36:31.296Z,978.20
2022-07-31T04:48:31.769Z,978.21
2022-07-31T05:00:32.174Z,978.24
2022-07-31T05:12:32.635Z,978.36
2022-07-31T05:24:34.106Z,978.25
2022-07-31T05:36:33.547Z,978.27
2022-07-31T05:48:34.024Z,978.27
2022-07-31T06:00:34.436Z,978.29
2022-07-31T06:12:34.882Z,978.43
2022-07-31T06:24:35.394Z,978.55
2022-07-31T06:36:35.829Z,978.52
2022-07-31T06:48:36.276Z,978.40
2022-07-31T07:00:36.716Z,978.56
2022-07-31T07:12:37.197Z,978.51
2022-07-31T07:24:37.647Z,978.52
2022-07-31T07:36:38.111Z,978.61
2022-07-31T07:48:38.549Z,978.40
2022-07-31T08:00:39.035Z,978.34
2022-07-31T08:12:39.465Z,978.32
2022-07-31T08:24:39.935Z,978.36
2022-07-31T08:36:40.380Z,978.61
2022-07-31T08:48:40.834Z,978.48
2022-07-31T09:00:41.303Z,978.43
2022-07-31T09:12:41.736Z,978.41
2022-07-31T09:24:42.164Z,978.33
2022-07-31T09:36:42.647Z,978.16
2022-07-31T09:48:43.437Z,978.23
2022-07-31T10:00:43.705Z,978.32
2022-07-31T10:12:43.991Z,977.98
2022-07-31T10:24:44.515Z,977.94
2022-07-31T10:36:44.946Z,978.11
2022-07-31T10:48:45.535Z,978.17
2022-07-31T11:00:45.855Z,977.97
2022-07-31T11:12:46.281Z,977.80
2022-07-31T11:24:46.742Z,977.80
2022-07-31T11:36:51.181Z,977.62
2022-07-31T11:48:47.683Z,977.67
2022-07-31T12:00:48.144Z,977.69
2022-07-31T12:12:48.560Z,977.62
2022-07-31T12:24:49.030Z,977.56
2022-07-31T12:36:49.462Z,977.43
2022-07-31T12:48:50.047Z,977.29
2022-07-31T13:00:50.410Z,977.24
2022-07-31T13:12:50.837Z,977.33
2022-07-31T13:24:51.294Z,977.10
2022-07-31T13:36:51.790Z,977.08
2022-07-31T13:48:52.281Z,977.12
2022-07-31T14:00:52.684Z,977.11
2022-07-31T14:12:53.118Z,977.11
2022-07-31T14:24:53.609Z,977.10
2022-07-31T14:36:54.065Z,977.05
2022-07-31T14:48:54.551Z,977.12
2022-07-31T15:00:54.961Z,976.99
2022-07-31T15:12:55.460Z,977.00
2022-07-31T15:24:55.883Z,976.86
2022-07-31T15:36:56.333Z,976.92
2022-07-31T15:48:56.828Z,976.76
2022-07-31T16:00:57.399Z,976.70
2022-07-31T16:12:57.753Z,976.59
2022-07-31T16:24:58.167Z,976.68
2022-07-31T16:36:58.597Z,976.77
2022-07-31T16:48:59.171Z,977.03
2022-07-31T17:00:59.593Z,976.88
2022-07-31T17:12:59.982Z,977.02
2022-07-31T17:25:00.446Z,977.12
2022-07-31T17:37:00.959Z,977.15
2022-07-31T17:49:01.447Z,977.14
2022-07-31T18:01:01.820Z,977.33
2022-07-31T18:13:02.281Z,977.36
2022-07-31T18:25:02.757Z,977.40
2022-07-31T18:37:03.214Z,977.51
2022-07-31T18:49:03.702Z,977.54
2022-07-31T19:01:04.106Z,977.62
2022-07-31T19:13:04.589Z,977.71
2022-07-31T19:25:05.017Z,977.85
2022-07-31T19:37:05.428Z,978.14
2022-07-31T19:49:05.968Z,978.14
2022-07-31T20:01:06.416Z,978.15
2022-07-31T20:13:06.841Z,978.08
2022-07-31T20:25:19.492Z,978.07
2022-07-31T20:37:07.747Z,978.20
2022-07-31T20:49:08.263Z,978.10
2022-07-31T21:01:08.722Z,978.12
2022-07-31T21:13:09.117Z,978.17
2022-07-31T21:25:09.569Z,978.12
2022-07-31T21:37:10.015Z,978.14
2022-07-31T21:49:10.513Z,977.92
2022-07-31T22:01:10.995Z,977.97
2022-07-31T22:13:11.376Z,977.97
2022-07-31T22:25:11.878Z,978.04
2022-07-31T22:37:12.260Z,978.02
2022-07-31T22:49:12.754Z,977.89
2022-07-31T23:01:13.205Z,977.84
2022-07-31T23:13:13.649Z,977.94
2022-07-31T23:25:14.094Z,977.85
2022-07-31T23:37:14.543Z,977.77
2022-07-31T23:49:15.078Z,977.80
